Time;durP1;ratioP1;P1;durP2;ratioP2;P2;SDS_P1;SDS_P2;PMS_P1;PMS_P2;Temp;Humidity;BMP_temperature;BMP_pressure;BME280_temperature;BME280_humidity;BME280_pressure;Samples;Min_cycle;Max_cycle;Signal;HPM_P1;HPM_P2
2021/07/14 00:00:09;;;;;;;21.92;19.45;;;;;;;20.17;100.00;100017.16;5011833;28;20082;-71
2021/07/14 00:02:36;;;;;;;22.05;18.05;;;;;;;20.06;100.00;100019.31;5004193;28;20100;-69
2021/07/14 00:05:09;;;;;;;26.25;19.45;;;;;;;20.19;100.00;100015.13;5014196;28;20060;-69
2021/07/14 00:07:37;;;;;;;23.73;21.17;;;;;;;20.05;100.00;100018.47;4994251;28;20620;-70
2021/07/14 00:10:13;;;;;;;25.13;22.55;;;;;;;20.08;100.00;100012.78;5003606;28;20137;-70
2021/07/14 00:12:49;;;;;;;24.15;19.67;;;;;;;20.12;100.00;100008.78;5004632;28;20057;-70
2021/07/14 00:23:20;;;;;;;23.00;20.58;;;;;;;19.95;100.00;99975.91;5007506;28;20050;-69
2021/07/14 00:25:47;;;;;;;23.33;18.83;;;;;;;19.97;100.00;99973.88;5014020;28;20054;-68
2021/07/14 00:28:15;;;;;;;25.30;22.80;;;;;;;19.99;100.00;99960.34;5011342;28;20132;-70
2021/07/14 00:30:49;;;;;;;29.73;26.58;;;;;;;19.89;100.00;99963.19;4993834;28;20136;-69
2021/07/14 00:33:16;;;;;;;27.83;24.88;;;;;;;19.85;100.00;99963.69;4987668;28;20056;-70
2021/07/14 00:35:43;;;;;;;24.88;22.45;;;;;;;19.81;100.00;99963.19;4992865;28;20132;-69
2021/07/14 00:38:11;;;;;;;28.00;25.23;;;;;;;19.75;100.00;99958.50;5008693;28;20066;-69
2021/07/14 00:40:39;;;;;;;26.45;23.58;;;;;;;19.75;100.00;99968.38;5020555;28;20073;-69
2021/07/14 00:43:06;;;;;;;25.77;22.98;;;;;;;19.72;100.00;99974.84;5004085;28;20129;-69
2021/07/14 00:45:33;;;;;;;27.52;24.40;;;;;;;19.81;100.00;99983.72;5005835;28;20499;-69
2021/07/14 00:48:01;;;;;;;30.17;26.13;;;;;;;19.81;100.00;99979.22;4997739;28;20134;-69
2021/07/14 00:50:29;;;;;;;26.40;23.90;;;;;;;19.70;100.00;99974.19;5004154;28;20563;-69
2021/07/14 00:52:57;;;;;;;25.95;23.17;;;;;;;19.78;100.00;99976.06;5002035;28;20056;-70
2021/07/14 00:55:24;;;;;;;27.65;24.73;;;;;;;19.92;100.00;99986.91;5008638;28;20085;-70
2021/07/14 00:57:51;;;;;;;32.42;25.83;;;;;;;19.87;100.00;99993.75;5011267;28;20115;-68
2021/07/14 01:00:18;;;;;;;27.98;25.17;;;;;;;19.84;100.00;99989.56;4999114;28;20046;-69
2021/07/14 01:02:49;;;;;;;29.27;25.85;;;;;;;19.75;100.00;99990.56;5012683;28;20038;-69
2021/07/14 01:05:20;;;;;;;30.17;27.05;;;;;;;19.80;100.00;100003.41;5003196;28;20129;-70
2021/07/14 01:08:19;;;;;;;27.33;23.88;;;;;;;19.68;100.00;100009.09;5000386;28;20057;-68
2021/07/14 01:10:52;;;;;;;28.15;23.80;;;;;;;19.72;100.00;100013.09;4977555;28;20092;-70
2021/07/14 01:13:35;;;;;;;25.42;22.65;;;;;;;19.74;100.00;100004.91;5000018;28;20064;-70
2021/07/14 01:16:07;;;;;;;28.33;23.60;;;;;;;19.71;100.00;100010.59;5005716;28;20507;-70
2021/07/14 01:18:42;;;;;;;29.98;23.85;;;;;;;19.68;100.00;100005.59;4998515;28;20104;-69
2021/07/14 01:21:24;;;;;;;26.60;23.73;;;;;;;19.62;100.00;100003.56;5008270;28;20624;-71
2021/07/14 01:24:12;;;;;;;30.45;26.85;;;;;;;19.63;100.00;99998.06;5014996;28;20656;-70
2021/07/14 01:27:06;;;;;;;30.48;27.23;;;;;;;19.65;100.00;99997.91;5010144;28;20046;-70
2021/07/14 01:29:36;;;;;;;37.10;29.65;;;;;;;19.43;100.00;100002.81;5007433;28;20659;-71
2021/07/14 01:32:03;;;;;;;31.95;28.45;;;;;;;19.33;100.00;100009.31;5002060;28;20108;-69
2021/07/14 01:34:32;;;;;;;30.15;26.95;;;;;;;19.32;100.00;100018.28;4980128;28;20060;-69
2021/07/14 01:37:00;;;;;;;31.23;27.83;;;;;;;19.37;100.00;100013.31;4997366;28;20049;-70
2021/07/14 01:39:29;;;;;;;31.65;26.33;;;;;;;19.41;100.00;100014.66;5006001;28;20054;-71
2021/07/14 01:41:56;;;;;;;28.33;25.60;;;;;;;19.37;100.00;100013.31;5003378;28;20060;-72
2021/07/14 01:44:25;;;;;;;28.70;25.83;;;;;;;19.44;100.00;100023.16;4998094;28;20133;-70
2021/07/14 01:46:57;;;;;;;32.75;26.08;;;;;;;19.44;100.00;100022.34;5019181;28;20137;-70
2021/07/14 01:49:31;;;;;;;27.90;24.95;;;;;;;19.41;100.00;100014.66;5004298;28;20380;-71
2021/07/14 01:52:02;;;;;;;31.02;27.55;;;;;;;19.58;100.00;100021.69;5004141;28;20257;-71
2021/07/14 01:54:30;;;;;;;37.58;30.85;;;;;;;19.37;100.00;100018.66;4987022;28;20578;-69
2021/07/14 01:57:00;;;;;;;35.28;31.52;;;;;;;19.35;100.00;100013.47;5003876;28;20076;-72
2021/07/14 01:59:28;;;;;;;36.58;31.98;;;;;;;19.21;100.00;100006.91;4988429;28;20145;-70
2021/07/14 02:01:58;;;;;;;34.63;30.88;;;;;;;19.25;100.00;100014.59;4999329;28;20161;-71
2021/07/14 02:04:32;;;;;;;38.10;34.08;;;;;;;19.24;100.00;100021.78;5002691;28;20164;-69
2021/07/14 02:07:09;;;;;;;35.40;29.10;;;;;;;19.18;100.00;100009.91;4981941;28;20124;-70
2021/07/14 02:09:39;;;;;;;34.50;30.55;;;;;;;19.19;100.00;100002.75;5001205;28;20053;-71
2021/07/14 02:12:09;;;;;;;37.78;31.60;;;;;;;19.27;100.00;100016.09;5009064;28;20058;-69
2021/07/14 02:14:39;;;;;;;35.10;30.35;;;;;;;19.14;100.00;100015.75;4985756;28;20623;-69
2021/07/14 02:17:15;;;;;;;33.90;30.27;;;;;;;19.12;100.00;100017.72;4997125;28;20152;-69
2021/07/14 02:19:48;;;;;;;37.55;31.67;;;;;;;19.06;100.00;100013.03;5011118;28;20069;-70
2021/07/14 02:22:15;;;;;;;34.53;29.73;;;;;;;19.14;100.00;100018.41;5005535;28;20073;-69
2021/07/14 02:24:42;;;;;;;37.30;33.17;;;;;;;19.10;100.00;100020.56;4998733;28;20054;-70
2021/07/14 02:27:10;;;;;;;36.25;32.35;;;;;;;19.02;100.00;100023.19;4994517;28;20074;-69
2021/07/14 02:29:39;;;;;;;35.13;31.42;;;;;;;19.01;100.00;100018.00;5015927;28;20120;-69
2021/07/14 02:32:07;;;;;;;31.85;28.23;;;;;;;19.06;100.00;100013.88;4992058;28;20054;-70
2021/07/14 02:34:34;;;;;;;32.90;29.42;;;;;;;19.20;100.00;100026.59;5001422;28;20647;-70
2021/07/14 02:37:04;;;;;;;38.08;29.63;;;;;;;19.15;100.00;100018.25;4967211;28;20049;-71
2021/07/14 02:39:31;;;;;;;34.50;29.80;;;;;;;19.17;100.00;100018.91;5002722;28;20140;-70
2021/07/14 02:42:11;;;;;;;33.95;30.33;;;;;;;19.00;100.00;100013.66;4990771;28;20053;-69
2021/07/14 02:44:45;;;;;;;37.90;30.65;;;;;;;19.03;100.00;100016.84;5017737;28;20132;-69
2021/07/14 02:47:13;;;;;;;38.00;31.08;;;;;;;19.01;100.00;100021.50;4996536;28;20133;-69
2021/07/14 02:49:41;;;;;;;41.80;33.58;;;;;;;18.91;100.00;100018.97;5009219;28;20058;-70
2021/07/14 02:52:10;;;;;;;37.60;32.95;;;;;;;18.91;100.00;100026.97;5001621;28;20103;-70
2021/07/14 02:54:39;;;;;;;33.45;29.70;;;;;;;18.94;100.00;100023.97;4991745;28;20050;-69
2021/07/14 02:57:08;;;;;;;39.72;32.50;;;;;;;19.06;100.00;100035.22;5007656;28;20128;-69
2021/07/14 02:59:37;;;;;;;39.80;33.13;;;;;;;18.99;100.00;100031.50;4997135;28;20057;-69
2021/07/14 03:02:05;;;;;;;36.22;28.80;;;;;;;19.08;100.00;100025.19;5011371;28;20073;-70
2021/07/14 03:04:36;;;;;;;34.97;31.25;;;;;;;19.12;100.00;100025.72;5018769;28;20137;-70
2021/07/14 03:07:07;;;;;;;35.33;28.90;;;;;;;19.07;100.00;100025.38;4998454;28;20075;-70
2021/07/14 03:09:39;;;;;;;31.13;27.45;;;;;;;19.11;100.00;100029.38;4996897;28;20137;-70
2021/07/14 03:12:12;;;;;;;39.15;27.55;;;;;;;19.16;100.00;100027.06;4987709;28;20058;-69
2021/07/14 03:14:44;;;;;;;33.10;27.90;;;;;;;19.32;100.00;100031.63;4993018;28;20074;-69
2021/07/14 03:17:13;;;;;;;30.30;27.05;;;;;;;19.39;100.00;100025.50;4990395;28;20077;-69
2021/07/14 03:19:41;;;;;;;28.27;25.35;;;;;;;19.37;100.00;100026.66;4979895;28;20080;-70
2021/07/14 03:22:09;;;;;;;27.50;24.48;;;;;;;19.38;100.00;100029.16;5008124;28;20056;-69
2021/07/14 03:24:37;;;;;;;32.63;26.10;;;;;;;19.34;100.00;100041.16;4982470;28;20045;-70
2021/07/14 03:27:06;;;;;;;29.92;25.48;;;;;;;19.40;100.00;100031.66;4997678;28;20052;-71
2021/07/14 03:29:33;;;;;;;31.98;24.45;;;;;;;19.42;100.00;100035.03;5005972;28;20347;-71
2021/07/14 03:32:01;;;;;;;29.02;25.65;;;;;;;19.35;100.00;100050.00;4993600;28;20062;-71
2021/07/14 03:34:30;;;;;;;27.55;24.67;;;;;;;19.31;100.00;100065.50;4984834;28;20145;-68
2021/07/14 03:37:03;;;;;;;33.22;25.08;;;;;;;19.38;100.00;100069.19;4993327;28;20125;-71
2021/07/14 03:39:40;;;;;;;28.23;25.27;;;;;;;19.47;100.00;100056.72;4985697;28;20131;-69
2021/07/14 03:42:14;;;;;;;29.52;23.35;;;;;;;19.42;100.00;100056.38;4988746;28;20055;-69
2021/07/14 03:44:42;;;;;;;26.95;23.15;;;;;;;19.42;100.00;100048.38;5016392;28;20069;-69
2021/07/14 03:47:10;;;;;;;32.08;24.45;;;;;;;19.44;100.00;100046.34;4980584;28;20132;-71
2021/07/14 03:49:38;;;;;;;31.98;23.95;;;;;;;19.36;100.00;100052.53;4982879;28;20046;-69
2021/07/14 03:52:06;;;;;;;30.70;25.27;;;;;;;19.45;100.00;100054.22;4999572;28;20144;-69
2021/07/14 03:54:33;;;;;;;28.20;23.42;;;;;;;19.57;100.00;100049.41;5007902;28;20060;-69
2021/07/14 03:57:01;;;;;;;28.67;24.65;;;;;;;19.47;100.00;100046.88;4992195;28;20144;-70
2021/07/14 03:59:30;;;;;;;26.13;21.77;;;;;;;19.55;100.00;100051.41;5009830;28;20050;-70
2021/07/14 04:01:58;;;;;;;26.85;21.48;;;;;;;19.61;100.00;100048.13;4993641;28;20479;-70
2021/07/14 04:04:25;;;;;;;25.17;20.40;;;;;;;19.61;100.00;100033.94;4992451;28;20088;-70
2021/07/14 04:07:01;;;;;;;27.63;19.48;;;;;;;19.61;100.00;100032.09;5005396;28;20046;-70
2021/07/14 04:09:28;;;;;;;26.50;20.42;;;;;;;19.70;100.00;100036.47;4998270;28;20106;-69
2021/07/14 04:11:58;;;;;;;24.50;19.23;;;;;;;19.79;100.00;100060.50;5006652;28;20137;-69
2021/07/14 04:14:26;;;;;;;29.00;19.67;;;;;;;19.76;100.00;100048.31;5010351;28;20143;-70
2021/07/14 04:16:54;;;;;;;22.38;17.00;;;;;;;19.83;100.00;100038.66;4990502;28;20450;-69
2021/07/14 04:19:23;;;;;;;24.35;17.80;;;;;;;19.82;100.00;100045.00;5007292;28;20138;-69
2021/07/14 04:21:50;;;;;;;20.85;15.88;;;;;;;19.86;100.00;100037.50;4990404;28;20072;-70
2021/07/14 04:49:53;;;;;;;24.95;15.93;;;;;;;19.66;100.00;100043.13;4987747;28;20222;-71
2021/07/14 04:52:21;;;;;;;23.42;15.45;;;;;;;19.65;100.00;100040.63;4998437;28;20065;-72
2021/07/14 04:54:49;;;;;;;38.63;19.08;;;;;;;19.67;100.00;100036.78;5014966;28;20164;-70
2021/07/14 04:57:16;;;;;;;27.65;18.90;;;;;;;19.59;100.00;100034.06;5007456;28;20104;-70
2021/07/14 04:59:43;;;;;;;29.40;19.45;;;;;;;19.59;100.00;100027.91;5037120;28;20052;-70
2021/07/14 05:02:10;;;;;;;32.40;19.60;;;;;;;19.65;100.00;100028.09;5035875;28;20072;-71
2021/07/14 05:04:37;;;;;;;33.47;20.33;;;;;;;19.82;100.00;100031.66;5033119;28;20076;-70
2021/07/14 05:07:05;;;;;;;33.08;21.52;;;;;;;19.80;100.00;100030.13;5029645;28;20480;-69
2021/07/14 05:09:32;;;;;;;31.83;20.95;;;;;;;19.94;100.00;100037.50;5029392;28;20122;-69
2021/07/14 05:11:59;;;;;;;47.00;23.17;;;;;;;19.77;100.00;100038.47;5008678;28;20496;-70
2021/07/14 05:14:26;;;;;;;32.85;21.65;;;;;;;19.88;100.00;100046.19;5011624;28;20145;-70
2021/07/14 05:16:53;;;;;;;33.83;23.17;;;;;;;19.96;100.00;100046.19;5012566;28;20118;-69
2021/07/14 05:19:21;;;;;;;39.97;22.10;;;;;;;19.76;100.00;100047.47;5027855;28;20061;-70
2021/07/14 05:21:48;;;;;;;37.65;23.35;;;;;;;20.09;100.00;100043.03;5032721;28;20140;-70
2021/07/14 05:24:16;;;;;;;34.95;20.80;;;;;;;20.34;100.00;100035.84;5033595;28;20052;-70
2021/07/14 05:26:43;;;;;;;31.58;22.25;;;;;;;20.47;100.00;100044.19;5036403;28;20072;-70
2021/07/14 05:29:10;;;;;;;34.65;22.35;;;;;;;20.47;100.00;100042.38;5018193;28;20059;-68
2021/07/14 05:31:37;;;;;;;32.22;21.13;;;;;;;20.59;100.00;100055.41;5028666;28;20061;-71
2021/07/14 05:34:05;;;;;;;33.58;21.77;;;;;;;20.65;100.00;100060.91;5044919;28;20459;-70
2021/07/14 05:36:32;;;;;;;27.00;20.27;;;;;;;20.79;100.00;100074.59;5019433;28;20488;-70
2021/07/14 05:38:59;;;;;;;30.98;20.65;;;;;;;20.94;100.00;100080.94;5037780;28;20128;-69
2021/07/14 05:41:26;;;;;;;32.28;20.65;;;;;;;21.15;100.00;100072.34;5001220;28;20391;-69
2021/07/14 05:43:54;;;;;;;30.20;20.08;;;;;;;21.22;100.00;100082.19;5033810;28;20084;-70
2021/07/14 05:46:22;;;;;;;25.75;18.67;;;;;;;21.23;100.00;100075.81;5017768;28;20057;-70
2021/07/14 05:48:49;;;;;;;28.77;18.92;;;;;;;21.27;100.00;100072.81;5019503;28;20661;-68
2021/07/14 05:51:16;;;;;;;24.48;18.42;;;;;;;21.30;100.00;100081.34;5036220;28;20045;-69
2021/07/14 05:53:44;;;;;;;28.17;17.10;;;;;;;23.44;93.35;100082.22;5032083;28;20061;-70
2021/07/14 05:56:11;;;;;;;24.58;14.25;;;;;;;26.13;77.44;100082.03;5043407;28;20049;-69
2021/07/14 05:58:41;;;;;;;23.45;14.25;;;;;;;26.32;71.72;100069.59;5027013;28;20594;-70
2021/07/14 06:01:09;;;;;;;18.35;13.60;;;;;;;26.33;70.40;100066.69;5038552;28;20055;-69
2021/07/14 06:03:36;;;;;;;25.00;13.25;;;;;;;25.66;72.53;100070.25;5034338;28;20715;-71
2021/07/14 06:06:03;;;;;;;16.90;12.45;;;;;;;25.17;74.08;100077.50;5032853;28;20532;-68
2021/07/14 06:08:30;;;;;;;18.73;14.20;;;;;;;24.23;78.54;100074.25;5030628;28;20132;-69
2021/07/14 06:10:58;;;;;;;17.08;12.90;;;;;;;23.73;81.20;100090.28;5036891;28;20092;-67
2021/07/14 06:13:25;;;;;;;21.30;14.35;;;;;;;23.41;84.09;100094.16;5035951;28;20136;-69
2021/07/14 06:15:52;;;;;;;19.63;13.90;;;;;;;22.93;86.23;100099.06;4996510;28;20057;-69
2021/07/14 06:18:19;;;;;;;21.17;14.57;;;;;;;22.87;87.11;100096.25;5033377;28;20496;-69
2021/07/14 06:20:46;;;;;;;23.42;15.55;;;;;;;22.81;88.36;100099.66;5017072;28;20440;-68
2021/07/14 06:23:14;;;;;;;17.15;13.77;;;;;;;22.80;87.83;100104.19;5035588;28;20454;-68
2021/07/14 06:25:41;;;;;;;21.70;14.73;;;;;;;22.55;88.50;100110.78;5023685;28;20057;-69
2021/07/14 06:28:12;;;;;;;18.35;15.52;;;;;;;22.50;89.59;100116.69;5036193;28;20078;-69
2021/07/14 06:30:45;;;;;;;22.75;15.77;;;;;;;22.48;89.61;100111.53;5034649;28;20152;-68
2021/07/14 06:33:14;;;;;;;21.17;15.85;;;;;;;22.45;89.89;100125.28;5036167;28;20152;-68
2021/07/14 06:35:42;;;;;;;21.35;16.08;;;;;;;22.48;89.89;100121.41;5034720;28;20135;-69
2021/07/14 06:38:09;;;;;;;23.35;16.40;;;;;;;22.42;90.21;100136.34;5039026;28;20071;-68
2021/07/14 06:40:37;;;;;;;30.58;18.25;;;;;;;22.44;90.27;100125.47;5022198;28;20140;-68
2021/07/14 06:43:07;;;;;;;21.75;17.40;;;;;;;22.24;90.94;100135.81;4997954;28;20053;-69
2021/07/14 06:45:35;;;;;;;20.92;17.30;;;;;;;22.00;93.27;100140.28;5024226;28;20072;-70
2021/07/14 06:48:02;;;;;;;19.05;15.82;;;;;;;22.12;92.79;100126.53;5035118;28;20376;-69
2021/07/14 06:50:29;;;;;;;20.63;16.73;;;;;;;22.13;92.78;100125.53;5017535;28;20041;-68
2021/07/14 06:52:57;;;;;;;20.75;17.23;;;;;;;22.06;92.50;100132.56;5039845;28;20136;-69
2021/07/14 06:55:24;;;;;;;23.65;17.33;;;;;;;21.99;93.00;100140.47;5040323;28;20076;-69
2021/07/14 06:57:52;;;;;;;22.15;16.92;;;;;;;22.02;93.58;100145.50;5034467;28;20595;-69
2021/07/14 07:00:19;;;;;;;20.88;17.95;;;;;;;21.78;94.91;100145.59;5024251;28;20161;-69
2021/07/14 07:02:46;;;;;;;18.83;16.80;;;;;;;21.79;95.48;100147.28;5041891;28;20081;-71
2021/07/14 07:05:13;;;;;;;20.17;17.42;;;;;;;21.68;96.84;100143.16;5024522;28;20118;-69
2021/07/14 07:07:41;;;;;;;26.42;15.95;;;;;;;22.12;93.55;100138.09;5037351;28;20084;-69
2021/07/14 07:10:08;;;;;;;20.90;15.38;;;;;;;22.46;90.80;100131.47;4999101;28;20231;-68
2021/07/14 07:12:35;;;;;;;19.85;15.23;;;;;;;22.81;88.22;100137.25;5042334;28;20091;-69
2021/07/14 07:15:03;;;;;;;21.50;14.70;;;;;;;22.82;87.05;100134.34;5032098;28;20114;-69
2021/07/14 07:17:30;;;;;;;18.77;14.27;;;;;;;22.87;86.69;100136.50;4996988;28;20075;-70
2021/07/14 07:19:58;;;;;;;20.88;15.40;;;;;;;22.67;87.85;100136.19;5014576;28;20081;-70
2021/07/14 07:22:25;;;;;;;15.75;14.10;;;;;;;22.64;87.94;100131.16;5038536;28;20053;-70
2021/07/14 07:24:52;;;;;;;17.67;14.20;;;;;;;22.87;86.36;100115.84;5032048;28;20072;-69
2021/07/14 07:27:19;;;;;;;18.13;14.15;;;;;;;22.96;85.89;100114.78;5027607;28;20057;-70
2021/07/14 07:29:46;;;;;;;15.32;12.80;;;;;;;23.20;83.75;100108.34;5034070;28;20059;-69
2021/07/14 07:32:13;;;;;;;14.80;12.23;;;;;;;23.44;82.83;100117.13;5027929;28;20077;-69
2021/07/14 07:34:42;;;;;;;16.92;12.48;;;;;;;23.60;81.46;100126.88;5031235;28;20107;-69
2021/07/14 07:37:10;;;;;;;12.98;11.77;;;;;;;23.67;80.35;100117.03;5032565;28;20486;-70
2021/07/14 07:39:38;;;;;;;17.33;13.32;;;;;;;23.52;81.57;100119.72;5033429;28;20251;-70
2021/07/14 07:42:07;;;;;;;15.50;12.65;;;;;;;23.70;81.08;100114.81;5031908;28;20141;-69
2021/07/14 07:44:34;;;;;;;19.08;12.70;;;;;;;23.91;79.85;100121.25;5019457;28;20064;-69
2021/07/14 07:47:01;;;;;;;17.17;13.40;;;;;;;23.97;79.51;100131.28;5028589;28;20500;-71
2021/07/14 07:49:28;;;;;;;21.30;13.77;;;;;;;23.75;80.77;100138.44;5028836;28;20046;-69
2021/07/14 07:51:56;;;;;;;18.40;12.85;;;;;;;23.83;81.12;100140.22;5016500;28;20531;-69
2021/07/14 07:54:23;;;;;;;16.35;13.23;;;;;;;23.81;79.91;100139.53;5032526;28;20116;-68
2021/07/14 07:56:50;;;;;;;18.45;13.48;;;;;;;23.91;79.70;100122.13;5017819;28;20200;-69
2021/07/14 07:59:18;;;;;;;16.60;12.55;;;;;;;24.08;77.74;100125.38;5018234;28;20140;-68
2021/07/14 08:01:45;;;;;;;18.48;12.60;;;;;;;24.22;76.74;100121.81;5038818;28;20063;-69
2021/07/14 08:04:13;;;;;;;14.75;11.88;;;;;;;25.02;73.79;100119.84;5039533;28;20092;-69
2021/07/14 08:06:40;;;;;;;16.15;12.18;;;;;;;25.27;72.42;100119.41;5039116;28;20527;-69
2021/07/14 08:09:07;;;;;;;33.10;12.32;;;;;;;24.98;72.83;100126.63;5031049;28;20053;-69
2021/07/14 08:11:34;;;;;;;12.38;11.13;;;;;;;24.63;73.66;100128.44;5031265;28;20072;-70
2021/07/14 08:14:02;;;;;;;14.85;12.10;;;;;;;24.45;74.80;100120.81;5024680;28;20049;-71
2021/07/14 08:16:30;;;;;;;16.77;12.75;;;;;;;24.57;74.65;100110.38;5024619;28;20284;-70
2021/07/14 08:18:57;;;;;;;15.40;12.27;;;;;;;24.84;72.36;100103.34;5008237;28;20140;-70
2021/07/14 08:21:25;;;;;;;16.13;10.98;;;;;;;24.81;72.41;100117.19;5030310;28;20128;-70
2021/07/14 08:23:52;;;;;;;16.25;11.90;;;;;;;24.51;74.58;100120.06;5012866;28;20065;-69
2021/07/14 08:26:19;;;;;;;15.05;11.93;;;;;;;24.34;74.27;100121.31;5008819;28;20072;-69
2021/07/14 08:28:46;;;;;;;16.20;11.60;;;;;;;24.59;73.21;100130.69;5013206;28;20140;-69
2021/07/14 08:31:13;;;;;;;14.85;11.60;;;;;;;25.00;72.52;100138.91;5031421;28;20092;-69
2021/07/14 08:33:41;;;;;;;14.30;11.45;;;;;;;25.19;71.00;100153.56;5027925;28;20061;-69
2021/07/14 08:36:08;;;;;;;12.48;10.02;;;;;;;25.29;69.23;100161.28;5030427;28;20057;-69
2021/07/14 08:38:35;;;;;;;11.65;10.60;;;;;;;24.63;71.21;100177.72;5000626;28;20103;-69
2021/07/14 08:41:04;;;;;;;12.80;10.70;;;;;;;24.31;73.74;100183.56;5027074;28;20107;-70
2021/07/14 08:43:34;;;;;;;12.57;10.13;;;;;;;23.91;75.93;100204.59;4997125;28;20212;-69
2021/07/14 08:46:02;;;;;;;18.70;10.05;;;;;;;24.36;74.35;100202.66;5028780;28;20057;-69
2021/07/14 08:48:31;;;;;;;15.40;10.07;;;;;;;24.75;72.09;100199.56;5037245;28;20104;-70
2021/07/14 08:50:59;;;;;;;16.90;10.23;;;;;;;25.15;70.96;100197.25;4996238;28;20088;-70
2021/07/14 08:53:28;;;;;;;11.65;8.85;;;;;;;25.88;67.73;100195.03;5021008;28;20095;-69
2021/07/14 08:55:57;;;;;;;10.52;8.65;;;;;;;26.81;62.86;100203.41;5032165;28;20059;-70
2021/07/14 08:58:25;;;;;;;15.18;9.00;;;;;;;26.19;64.71;100205.31;5011447;28;20059;-69
2021/07/14 09:00:55;;;;;;;9.82;8.80;;;;;;;24.84;70.16;100211.03;5023719;28;20140;-70
2021/07/14 09:03:23;;;;;;;11.13;10.00;;;;;;;24.87;71.03;100205.28;5017450;28;20458;-68
2021/07/14 09:05:50;;;;;;;10.23;9.23;;;;;;;25.04;70.49;100192.34;5017550;28;20137;-69
2021/07/14 09:08:17;;;;;;;10.90;9.73;;;;;;;25.68;67.41;100189.50;5015387;28;20482;-69
2021/07/14 09:10:45;;;;;;;11.82;10.45;;;;;;;25.92;66.12;100205.19;5030830;28;20492;-69
2021/07/14 09:13:13;;;;;;;11.07;10.05;;;;;;;26.31;63.67;100194.78;5028518;28;20053;-70
2021/07/14 09:15:48;;;;;;;12.52;11.23;;;;;;;26.08;63.41;100190.56;5020093;28;20057;-69
2021/07/14 09:18:20;;;;;;;14.73;11.70;;;;;;;26.42;62.98;100178.78;5018161;28;20137;-68
2021/07/14 09:20:47;;;;;;;13.30;11.93;;;;;;;26.43;62.66;100166.13;5037160;28;20051;-67
2021/07/14 09:23:20;;;;;;;12.60;11.40;;;;;;;26.66;61.07;100173.91;5016747;28;20136;-69
2021/07/14 09:25:59;;;;;;;13.48;11.60;;;;;;;26.42;61.38;100162.59;5016790;28;20057;-70
2021/07/14 09:28:34;;;;;;;15.45;12.27;;;;;;;26.86;61.11;100144.19;5033170;28;20084;-70
2021/07/14 09:31:05;;;;;;;;;;;;;;;27.90;56.93;100143.38;5019074;28;20057;-68
2021/07/14 09:33:32;;;;;;;18.10;11.90;;;;;;;28.11;55.86;100151.19;5026201;28;19921;-68
2021/07/14 09:36:00;;;;;;;13.23;11.80;;;;;;;28.40;55.12;100154.34;5018984;28;20068;-69
2021/07/14 09:38:28;;;;;;;12.95;11.75;;;;;;;27.89;55.98;100163.34;5038228;28;20053;-69
2021/07/14 09:41:00;;;;;;;12.20;11.10;;;;;;;27.41;57.02;100158.28;5033587;28;20049;-69
2021/07/14 09:43:35;;;;;;;14.63;12.05;;;;;;;26.96;59.82;100152.69;5017355;28;20128;-69
2021/07/14 09:46:04;;;;;;;;;;;;;;;27.18;58.27;100170.38;5033629;28;20046;-70
2021/07/14 09:48:34;;;;;;;12.43;11.13;;;;;;;27.28;58.42;100180.75;5038402;28;19921;-69
2021/07/14 09:51:03;;;;;;;13.73;11.63;;;;;;;26.99;58.97;100187.41;5027333;28;20140;-70
2021/07/14 09:53:33;;;;;;;16.63;12.13;;;;;;;26.83;59.99;100174.31;5043527;28;20064;-69
2021/07/14 09:56:12;;;;;;;13.63;12.20;;;;;;;27.26;58.96;100175.56;5043686;28;20083;-70
2021/07/14 09:58:40;;;;;;;12.63;10.60;;;;;;;26.89;59.46;100182.44;5029956;28;20045;-70
2021/07/14 10:01:11;;;;;;;11.10;10.00;;;;;;;26.57;60.24;100183.22;5036066;28;20489;-69
2021/07/14 10:03:48;;;;;;;13.52;11.10;;;;;;;26.73;59.79;100180.13;5003575;28;20037;-69
2021/07/14 10:06:15;;;;;;;11.68;10.57;;;;;;;26.51;60.45;100174.91;5010739;28;20535;-68
2021/07/14 10:08:47;;;;;;;11.18;10.07;;;;;;;26.62;60.62;100178.06;5029972;28;20076;-72
2021/07/14 10:11:25;;;;;;;14.68;10.02;;;;;;;26.47;61.06;100183.63;5032696;28;20794;-70
2021/07/14 10:14:07;;;;;;;13.75;10.05;;;;;;;26.38;62.98;100182.94;5001003;28;20124;-70
2021/07/14 10:16:37;;;;;;;15.45;10.48;;;;;;;26.43;61.96;100188.63;5008018;28;21406;-69
2021/07/14 10:19:13;;;;;;;12.48;9.73;;;;;;;26.53;61.68;100195.47;5028717;28;20116;-69
2021/07/14 10:21:41;;;;;;;10.15;9.07;;;;;;;26.44;61.67;100192.97;5036780;28;20921;-69
2021/07/14 10:24:12;;;;;;;12.43;9.85;;;;;;;26.21;62.17;100201.38;5029815;28;20111;-70
2021/07/14 10:26:44;;;;;;;13.52;10.00;;;;;;;25.89;63.55;100205.63;5030854;28;20199;-69
2021/07/14 10:29:11;;;;;;;11.30;9.20;;;;;;;25.50;65.22;100200.81;5028161;28;20163;-70
2021/07/14 10:31:40;;;;;;;10.27;9.30;;;;;;;25.47;65.08;100193.94;5034090;28;20057;-70
2021/07/14 10:34:09;;;;;;;11.70;9.77;;;;;;;25.80;64.12;100169.03;5014382;28;20235;-68
2021/07/14 10:36:38;;;;;;;14.75;10.00;;;;;;;25.96;63.70;100178.66;5020704;28;20052;-70
2021/07/14 10:39:11;;;;;;;13.68;9.38;;;;;;;26.12;61.97;100183.72;5032683;28;20068;-69
2021/07/14 10:41:38;;;;;;;19.45;8.85;;;;;;;26.45;61.97;100183.81;5020628;28;20643;-70
2021/07/14 10:44:06;;;;;;;12.02;7.82;;;;;;;26.63;60.70;100183.22;5014226;28;20424;-71
2021/07/14 10:46:35;;;;;;;11.30;8.05;;;;;;;26.79;59.99;100183.84;5022739;28;20089;-70
2021/07/14 10:49:05;;;;;;;14.25;7.38;;;;;;;26.89;59.90;100185.13;5016634;28;20157;-69
2021/07/14 10:51:34;;;;;;;10.35;8.00;;;;;;;26.39;62.01;100183.78;5013761;28;20045;-70
2021/07/14 10:54:07;;;;;;;9.27;7.28;;;;;;;26.88;60.03;100182.63;5016779;28;20156;-70
2021/07/14 10:56:36;;;;;;;9.50;7.63;;;;;;;26.44;61.72;100186.75;5026789;28;20153;-70
2021/07/14 10:59:04;;;;;;;12.80;6.85;;;;;;;26.45;62.02;100172.19;5000659;28;20049;-69
2021/07/14 11:01:52;;;;;;;7.25;6.47;;;;;;;26.48;61.39;100174.50;4992305;28;20038;-71
2021/07/14 11:04:25;;;;;;;10.15;6.82;;;;;;;26.60;60.09;100167.44;5035947;28;20048;-70
2021/07/14 11:06:59;;;;;;;7.53;6.53;;;;;;;26.63;61.04;100169.72;5044357;28;20077;-70
2021/07/14 11:09:34;;;;;;;8.00;6.07;;;;;;;26.69;60.38;100179.69;5020653;28;20084;-70
2021/07/14 11:12:04;;;;;;;;;;;;;;;26.81;59.76;100179.09;4998053;28;20087;-69
2021/07/14 11:14:42;;;;;;;11.25;6.32;;;;;;;26.87;59.96;100184.50;5004127;28;19921;-70
2021/07/14 11:17:10;;;;;;;10.32;7.22;;;;;;;26.77;59.38;100190.31;5007122;28;20053;-70
2021/07/14 11:19:49;;;;;;;6.97;6.20;;;;;;;26.82;59.96;100183.47;5026473;28;20042;-70
2021/07/14 11:22:36;;;;;;;8.07;6.32;;;;;;;26.94;59.45;100185.31;5015078;28;20080;-69
2021/07/14 11:25:05;;;;;;;16.95;5.38;;;;;;;26.96;59.09;100179.72;5017467;28;20060;-71
2021/07/14 11:27:34;;;;;;;10.52;6.05;;;;;;;26.44;60.52;100173.25;5026423;28;20369;-69
2021/07/14 11:30:02;;;;;;;8.43;5.00;;;;;;;26.35;60.09;100172.56;5017716;28;20079;-70
2021/07/14 11:32:35;;;;;;;14.07;5.72;;;;;;;26.50;60.34;100173.25;5033920;28;20127;-70
2021/07/14 11:35:15;;;;;;;8.50;5.85;;;;;;;27.25;57.95;100181.19;5035073;28;20062;-69
2021/07/14 11:37:55;;;;;;;7.55;5.22;;;;;;;27.69;56.28;100202.09;5033223;28;20073;-71
2021/07/14 11:40:25;;;;;;;7.28;5.93;;;;;;;27.60;55.62;100213.34;5034073;28;20155;-69
2021/07/14 11:42:55;;;;;;;6.80;5.75;;;;;;;27.60;55.15;100219.56;5028316;28;20052;-70
2021/07/14 11:45:25;;;;;;;8.68;4.93;;;;;;;27.42;56.42;100216.69;5017364;28;20500;-70
2021/07/14 11:48:00;;;;;;;8.10;5.75;;;;;;;27.49;57.45;100220.22;5038021;28;20135;-69
2021/07/14 11:50:42;;;;;;;7.20;5.30;;;;;;;27.53;57.02;100226.88;5010831;28;20508;-69
2021/07/14 11:53:38;;;;;;;6.03;5.43;;;;;;;27.21;57.25;100242.94;5030715;28;20076;-70